Time;durP1;ratioP1;P1;durP2;ratioP2;P2;SDS_P1;SDS_P2;PMS_P1;PMS_P2;Temp;Humidity;BMP_temperature;BMP_pressure;BME280_temperature;BME280_humidity;BME280_pressure;Samples;Min_cycle;Max_cycle;Signal;HPM_P1;HPM_P2
2024/02/29 00:00:11;;;;;;;40.73;12.47;;;;;;;;;;5015638;28;20014;-57
2024/02/29 00:02:37;;;;;;;34.25;12.70;;;;;;;;;;5014804;28;20109;-57
2024/02/29 00:05:02;;;;;;;37.08;12.57;;;;;;;;;;5013274;28;20458;-56
2024/02/29 00:07:27;;;;;;;32.07;11.57;;;;;;;;;;5015389;28;20449;-56
2024/02/29 00:09:52;;;;;;;46.90;12.30;;;;;;;;;;5015406;28;20076;-57
2024/02/29 00:12:17;;;;;;;38.28;13.23;;;;;;;;;;5015461;28;20373;-58
2024/02/29 00:14:42;;;;;;;38.57;12.63;;;;;;;;;;5014902;28;20036;-58
2024/02/29 00:17:08;;;;;;;41.03;11.17;;;;;;;;;;5016553;28;20470;-57
2024/02/29 00:19:33;;;;;;;38.53;12.13;;;;;;;;;;5015217;28;20105;-59
2024/02/29 00:21:58;;;;;;;35.00;11.23;;;;;;;;;;5014323;28;20018;-57
2024/02/29 00:24:25;;;;;;;29.35;10.77;;;;;;;;;;5013523;28;20478;-58
2024/02/29 00:26:50;;;;;;;38.40;12.55;;;;;;;;;;5013488;28;20018;-57
2024/02/29 00:29:15;;;;;;;69.87;12.57;;;;;;;;;;5012909;28;20032;-57
2024/02/29 00:31:45;;;;;;;99.57;13.43;;;;;;;;;;5015666;28;20030;-58
2024/02/29 00:34:11;;;;;;;58.58;12.48;;;;;;;;;;5015716;28;20022;-56
2024/02/29 00:36:36;;;;;;;39.47;12.63;;;;;;;;;;5015022;28;20025;-57
2024/02/29 00:39:01;;;;;;;34.77;12.57;;;;;;;;;;5014794;28;20034;-57
2024/02/29 00:41:26;;;;;;;34.23;11.73;;;;;;;;;;5014249;28;20465;-57
2024/02/29 00:43:52;;;;;;;26.77;10.77;;;;;;;;;;5014570;28;20032;-58
2024/02/29 00:46:17;;;;;;;36.50;11.40;;;;;;;;;;5014938;28;20053;-57
2024/02/29 00:48:42;;;;;;;38.17;10.88;;;;;;;;;;5012884;28;20091;-56
2024/02/29 00:51:08;;;;;;;32.35;11.23;;;;;;;;;;5013230;28;20018;-57
2024/02/29 00:53:33;;;;;;;31.85;11.25;;;;;;;;;;5014230;28;20486;-58
2024/02/29 00:56:00;;;;;;;29.52;11.65;;;;;;;;;;5014256;28;20033;-56
2024/02/29 00:58:25;;;;;;;36.22;12.32;;;;;;;;;;5014046;28;20036;-57
2024/02/29 01:00:50;;;;;;;27.80;10.73;;;;;;;;;;5014187;28;20100;-57
2024/02/29 01:03:15;;;;;;;30.80;11.40;;;;;;;;;;5016708;28;20049;-57
2024/02/29 01:05:40;;;;;;;29.48;11.27;;;;;;;;;;5017348;28;20025;-58
2024/02/29 01:08:05;;;;;;;28.30;11.03;;;;;;;;;;5019546;28;20036;-58
2024/02/29 01:10:31;;;;;;;42.05;12.70;;;;;;;;;;5023137;28;20026;-57
2024/02/29 01:12:56;;;;;;;31.95;11.75;;;;;;;;;;5026211;28;20034;-56
2024/02/29 01:15:21;;;;;;;33.03;12.02;;;;;;;;;;5013197;28;20021;-58
2024/02/29 01:17:47;;;;;;;29.47;10.67;;;;;;;;;;5010336;28;20042;-56
2024/02/29 01:20:12;;;;;;;28.13;10.88;;;;;;;;;;5014019;28;20026;-57
2024/02/29 01:22:37;;;;;;;29.48;9.75;;;;;;;;;;5013056;28;20018;-57
2024/02/29 01:25:03;;;;;;;29.25;10.85;;;;;;;;;;5009693;28;20073;-58
2024/02/29 01:27:28;;;;;;;31.88;11.77;;;;;;;;;;5013942;28;20473;-57
2024/02/29 01:29:53;;;;;;;29.73;11.50;;;;;;;;;;5013957;28;20025;-57
2024/02/29 01:32:18;;;;;;;44.73;13.10;;;;;;;;;;5013819;28;20018;-57
2024/02/29 01:34:43;;;;;;;33.20;11.93;;;;;;;;;;5022156;28;20432;-57
2024/02/29 01:37:09;;;;;;;30.50;11.05;;;;;;;;;;5033860;28;20028;-57
2024/02/29 01:39:34;;;;;;;35.60;12.77;;;;;;;;;;5016759;28;20490;-57
2024/02/29 01:41:59;;;;;;;25.10;10.30;;;;;;;;;;5013399;28;20028;-56
2024/02/29 01:44:26;;;;;;;28.25;11.35;;;;;;;;;;5012384;28;20049;-57
2024/02/29 01:46:51;;;;;;;28.90;11.27;;;;;;;;;;5018753;28;20018;-57
2024/02/29 01:49:17;;;;;;;32.03;10.93;;;;;;;;;;5014691;28;20033;-57
2024/02/29 01:51:43;;;;;;;32.28;12.70;;;;;;;;;;5011474;28;20072;-58
2024/02/29 01:54:08;;;;;;;35.38;12.50;;;;;;;;;;5013416;28;20056;-57
2024/02/29 01:56:33;;;;;;;33.50;11.43;;;;;;;;;;5013498;28;20029;-56
2024/02/29 01:58:59;;;;;;;31.37;11.63;;;;;;;;;;5017621;28;20033;-58
2024/02/29 02:01:24;;;;;;;35.08;11.75;;;;;;;;;;5028782;28;20808;-57
2024/02/29 02:03:50;;;;;;;30.37;11.50;;;;;;;;;;5009549;28;20025;-56
2024/02/29 02:06:15;;;;;;;32.20;11.95;;;;;;;;;;5013436;28;20100;-57
2024/02/29 02:08:40;;;;;;;33.90;11.45;;;;;;;;;;5013367;28;20449;-57
2024/02/29 02:11:05;;;;;;;31.93;11.73;;;;;;;;;;5013909;28;20017;-58
2024/02/29 02:13:30;;;;;;;31.77;12.33;;;;;;;;;;5016034;28;20021;-57
2024/02/29 02:15:55;;;;;;;35.37;12.00;;;;;;;;;;5017813;28;20371;-56
2024/02/29 02:18:21;;;;;;;35.83;12.37;;;;;;;;;;5011034;28;20125;-56
2024/02/29 02:20:46;;;;;;;28.40;10.85;;;;;;;;;;5010434;28;20094;-58
2024/02/29 02:23:11;;;;;;;34.88;11.73;;;;;;;;;;4996276;28;20031;-57
2024/02/29 02:25:36;;;;;;;33.40;11.73;;;;;;;;;;5010068;28;20029;-57
2024/02/29 02:28:01;;;;;;;36.33;12.97;;;;;;;;;;5018028;28;20069;-57
2024/02/29 02:30:27;;;;;;;39.88;12.40;;;;;;;;;;5013397;28;20018;-57
2024/02/29 02:32:52;;;;;;;38.08;12.63;;;;;;;;;;5013428;28;20044;-57
2024/02/29 02:35:17;;;;;;;35.67;12.90;;;;;;;;;;5012965;28;20466;-57
2024/02/29 02:37:44;;;;;;;34.55;11.95;;;;;;;;;;5013624;28;20495;-57
2024/02/29 02:40:10;;;;;;;36.85;12.57;;;;;;;;;;5013607;28;20024;-57
2024/02/29 02:42:35;;;;;;;35.47;12.50;;;;;;;;;;5013426;28;20021;-57
2024/02/29 02:45:00;;;;;;;30.63;11.75;;;;;;;;;;5019216;28;20022;-58
2024/02/29 02:47:25;;;;;;;33.73;12.53;;;;;;;;;;5013500;28;20029;-56
2024/02/29 02:49:51;;;;;;;32.10;11.52;;;;;;;;;;5013495;28;20112;-58
2024/02/29 02:52:16;;;;;;;33.08;11.60;;;;;;;;;;5012934;28;20034;-55
2024/02/29 02:54:41;;;;;;;37.28;12.18;;;;;;;;;;5013472;28;20482;-59
2024/02/29 02:57:06;;;;;;;37.53;12.60;;;;;;;;;;5013743;28;20025;-57
2024/02/29 02:59:31;;;;;;;32.28;11.75;;;;;;;;;;5018106;28;20033;-59
2024/02/29 03:01:56;;;;;;;35.95;11.85;;;;;;;;;;5034031;28;20034;-57
2024/02/29 03:04:22;;;;;;;31.80;11.23;;;;;;;;;;5038542;28;20382;-58
2024/02/29 03:06:47;;;;;;;33.08;11.48;;;;;;;;;;5043535;28;20052;-56
2024/02/29 03:09:12;;;;;;;32.80;11.18;;;;;;;;;;5049418;28;20026;-57
2024/02/29 03:11:37;;;;;;;32.80;11.48;;;;;;;;;;5048149;28;20450;-58
2024/02/29 03:14:02;;;;;;;37.33;12.10;;;;;;;;;;5047789;28;20036;-58
2024/02/29 03:16:28;;;;;;;35.22;11.57;;;;;;;;;;5031060;28;20078;-57
2024/02/29 03:18:53;;;;;;;34.07;11.97;;;;;;;;;;5027181;28;20474;-57
2024/02/29 03:21:18;;;;;;;32.73;11.93;;;;;;;;;;5024141;28;20022;-58
2024/02/29 03:23:44;;;;;;;31.85;11.32;;;;;;;;;;5023446;28;20037;-57
2024/02/29 03:26:09;;;;;;;31.00;10.70;;;;;;;;;;5021850;28;20109;-57
2024/02/29 03:28:34;;;;;;;30.60;10.57;;;;;;;;;;5013111;28;20411;-57
2024/02/29 03:31:00;;;;;;;30.60;11.17;;;;;;;;;;5007844;28;20522;-57
2024/02/29 03:33:25;;;;;;;29.40;11.32;;;;;;;;;;5023905;28;20446;-58
2024/02/29 03:35:51;;;;;;;34.88;11.68;;;;;;;;;;5005854;28;20398;-57
2024/02/29 03:38:16;;;;;;;35.20;12.35;;;;;;;;;;5011552;28;20113;-56
2024/02/29 03:40:42;;;;;;;32.97;11.40;;;;;;;;;;5012035;28;20018;-56
2024/02/29 03:43:07;;;;;;;34.85;12.82;;;;;;;;;;5012820;28;20014;-56
2024/02/29 03:45:32;;;;;;;29.77;11.60;;;;;;;;;;5012840;28;20117;-57
2024/02/29 03:47:58;;;;;;;28.77;10.80;;;;;;;;;;5013559;28;20156;-57
2024/02/29 03:50:24;;;;;;;35.37;11.63;;;;;;;;;;5016095;28;20022;-57
2024/02/29 03:52:49;;;;;;;28.42;11.20;;;;;;;;;;5019013;28;20017;-57
2024/02/29 03:55:15;;;;;;;33.15;11.13;;;;;;;;;;5017814;28;20068;-57
2024/02/29 03:57:40;;;;;;;34.00;11.97;;;;;;;;;;5022191;28;20029;-57
2024/02/29 04:00:10;;;;;;;31.88;11.23;;;;;;;;;;5004283;28;20022;-56
2024/02/29 04:02:35;;;;;;;27.30;10.18;;;;;;;;;;5012946;28;20036;-61
2024/02/29 04:05:00;;;;;;;30.17;11.27;;;;;;;;;;5011769;28;20014;-57
2024/02/29 04:07:26;;;;;;;33.58;10.95;;;;;;;;;;5022865;28;20029;-58
2024/02/29 04:09:54;;;;;;;33.07;12.27;;;;;;;;;;5015546;28;20470;-56
2024/02/29 04:12:19;;;;;;;33.28;11.80;;;;;;;;;;5011273;28;20026;-57
2024/02/29 04:14:44;;;;;;;34.13;11.90;;;;;;;;;;5010900;28;20044;-56
2024/02/29 04:17:09;;;;;;;29.77;10.98;;;;;;;;;;5011240;28;20029;-57
2024/02/29 04:19:35;;;;;;;30.08;10.82;;;;;;;;;;5011678;28;20041;-57
2024/02/29 04:22:00;;;;;;;31.27;11.03;;;;;;;;;;5011558;28;20548;-58
2024/02/29 04:24:26;;;;;;;26.92;9.93;;;;;;;;;;5008958;28;20023;-58
2024/02/29 04:26:51;;;;;;;26.77;9.75;;;;;;;;;;5011505;28;20046;-56
2024/02/29 04:29:16;;;;;;;33.63;11.32;;;;;;;;;;5006256;28;20034;-56
2024/02/29 04:31:45;;;;;;;27.93;10.00;;;;;;;;;;4991634;28;20332;-58
2024/02/29 04:34:10;;;;;;;29.48;10.18;;;;;;;;;;4991890;28;20033;-57
2024/02/29 04:36:37;;;;;;;33.60;10.65;;;;;;;;;;4993503;28;20029;-58
2024/02/29 04:39:02;;;;;;;31.08;11.18;;;;;;;;;;5013643;28;20502;-58
2024/02/29 04:41:27;;;;;;;30.90;10.07;;;;;;;;;;5015125;28;20022;-59
2024/02/29 04:43:52;;;;;;;31.33;10.53;;;;;;;;;;5010527;28;20064;-58
2024/02/29 04:46:18;;;;;;;32.83;10.50;;;;;;;;;;5016033;28;20060;-58
2024/02/29 04:48:43;;;;;;;36.03;11.90;;;;;;;;;;5015647;28;20085;-59
2024/02/29 04:51:09;;;;;;;36.38;11.23;;;;;;;;;;5013366;28;20033;-58
2024/02/29 04:53:35;;;;;;;37.22;11.55;;;;;;;;;;5005585;28;20045;-57
2024/02/29 04:56:01;;;;;;;33.47;11.95;;;;;;;;;;5011495;28;20036;-58
2024/02/29 04:58:27;;;;;;;37.38;12.70;;;;;;;;;;5013785;28;20022;-57
2024/02/29 05:00:52;;;;;;;37.63;12.60;;;;;;;;;;5009439;28;20482;-57
2024/02/29 05:03:17;;;;;;;44.70;13.70;;;;;;;;;;5009975;28;20022;-56
2024/02/29 05:05:42;;;;;;;41.05;13.05;;;;;;;;;;5018726;28;20149;-57
2024/02/29 05:08:08;;;;;;;44.78;14.07;;;;;;;;;;5020101;28;20030;-57
2024/02/29 05:10:33;;;;;;;46.72;14.18;;;;;;;;;;5017939;28;20044;-58
2024/02/29 05:12:59;;;;;;;51.00;15.48;;;;;;;;;;5016665;28;20030;-58
2024/02/29 05:15:24;;;;;;;50.95;15.52;;;;;;;;;;5008509;28;20030;-57
2024/02/29 05:17:49;;;;;;;42.03;12.77;;;;;;;;;;5009326;28;20029;-58
2024/02/29 05:20:15;;;;;;;49.63;14.27;;;;;;;;;;5011558;28;20106;-58
2024/02/29 05:22:40;;;;;;;54.35;15.57;;;;;;;;;;5003695;28;20025;-57
2024/02/29 05:25:07;;;;;;;47.67;14.33;;;;;;;;;;5010346;28;20025;-57
2024/02/29 05:27:32;;;;;;;;;;;;;;;;;;5008842;28;20037;-58
2024/02/29 05:29:57;;;;;;;48.00;13.82;;;;;;;;;;5005541;28;19921;-57
2024/02/29 05:32:22;;;;;;;68.20;16.03;;;;;;;;;;5012558;28;20088;-57
2024/02/29 05:34:47;;;;;;;51.92;13.93;;;;;;;;;;5010437;28;20448;-58
2024/02/29 05:37:13;;;;;;;59.25;15.93;;;;;;;;;;5010438;28;20045;-57
2024/02/29 05:39:38;;;;;;;57.55;16.77;;;;;;;;;;5004188;28;20033;-58
2024/02/29 05:42:03;;;;;;;57.20;17.05;;;;;;;;;;5009650;28;20030;-57
2024/02/29 05:44:30;;;;;;;63.00;15.90;;;;;;;;;;5009770;28;20453;-58
2024/02/29 05:46:57;;;;;;;48.90;16.20;;;;;;;;;;5009344;28;20049;-57
2024/02/29 05:49:22;;;;;;;54.35;15.85;;;;;;;;;;5017278;28;20049;-57
2024/02/29 05:51:47;;;;;;;51.50;15.40;;;;;;;;;;5008207;28;20685;-58
2024/02/29 05:54:12;;;;;;;56.10;15.63;;;;;;;;;;5007066;28;20033;-56
2024/02/29 05:56:37;;;;;;;60.38;16.15;;;;;;;;;;5009182;28;20018;-58
2024/02/29 05:59:03;;;;;;;47.33;14.68;;;;;;;;;;5001855;28;20034;-60
2024/02/29 06:01:28;;;;;;;61.08;16.00;;;;;;;;;;5008780;28;20461;-58
2024/02/29 06:03:55;;;;;;;60.17;16.35;;;;;;;;;;5010962;28;20053;-57
2024/02/29 06:06:20;;;;;;;52.92;14.27;;;;;;;;;;5009938;28;20036;-56
2024/02/29 06:08:45;;;;;;;63.87;16.83;;;;;;;;;;5014072;28;20030;-56
2024/02/29 06:11:13;;;;;;;50.83;15.23;;;;;;;;;;5010867;28;20045;-56
2024/02/29 06:13:40;;;;;;;64.28;17.08;;;;;;;;;;5012100;28;20029;-58
2024/02/29 06:16:05;;;;;;;61.88;16.05;;;;;;;;;;5017743;28;20022;-58
2024/02/29 06:18:30;;;;;;;57.30;16.27;;;;;;;;;;5012678;28;20030;-58
2024/02/29 06:20:55;;;;;;;56.85;16.00;;;;;;;;;;5006380;28;20053;-58
2024/02/29 06:23:20;;;;;;;53.45;14.45;;;;;;;;;;5011344;28;20026;-57
2024/02/29 06:25:49;;;;;;;49.63;16.33;;;;;;;;;;5012762;28;20030;-57
2024/02/29 06:28:14;;;;;;;51.88;16.05;;;;;;;;;;5013064;28;20037;-58
2024/02/29 06:30:40;;;;;;;48.00;14.10;;;;;;;;;;5013223;28;20109;-58
2024/02/29 06:33:05;;;;;;;55.42;15.88;;;;;;;;;;5013245;28;20022;-55
2024/02/29 06:35:31;;;;;;;51.60;15.50;;;;;;;;;;5012816;28;20447;-57
2024/02/29 06:37:56;;;;;;;47.65;15.38;;;;;;;;;;5010993;28;20029;-57
2024/02/29 06:40:21;;;;;;;52.33;16.10;;;;;;;;;;5004474;28;20017;-57
2024/02/29 06:42:46;;;;;;;46.10;15.07;;;;;;;;;;5012351;28;20018;-57
2024/02/29 06:45:11;;;;;;;51.95;16.23;;;;;;;;;;5012706;28;20018;-56
2024/02/29 06:47:40;;;;;;;48.93;14.93;;;;;;;;;;5012904;28;20105;-57
2024/02/29 06:50:08;;;;;;;52.83;15.85;;;;;;;;;;5013653;28;20516;-58
2024/02/29 06:52:33;;;;;;;51.72;16.88;;;;;;;;;;5015198;28;20029;-57
2024/02/29 06:54:59;;;;;;;41.28;14.55;;;;;;;;;;5012687;28;20022;-57
2024/02/29 06:57:24;;;;;;;46.50;14.20;;;;;;;;;;5013342;28;20038;-58
2024/02/29 06:59:49;;;;;;;48.88;14.77;;;;;;;;;;5016057;28;20014;-57
2024/02/29 07:02:15;;;;;;;42.80;14.50;;;;;;;;;;5012613;28;20109;-57
2024/02/29 07:04:40;;;;;;;44.70;14.47;;;;;;;;;;5011601;28;20025;-57
2024/02/29 07:07:07;;;;;;;43.60;14.35;;;;;;;;;;5005651;28;20077;-56
2024/02/29 07:09:33;;;;;;;39.75;14.23;;;;;;;;;;5013318;28;20051;-57
2024/02/29 07:11:58;;;;;;;42.20;15.13;;;;;;;;;;5007034;28;20030;-57
2024/02/29 07:14:23;;;;;;;40.70;14.33;;;;;;;;;;5004621;28;24315;-56
2024/02/29 07:16:48;;;;;;;41.47;14.75;;;;;;;;;;5011586;28;20091;-57
2024/02/29 07:19:14;;;;;;;43.43;15.53;;;;;;;;;;5012194;28;20061;-57
2024/02/29 07:21:39;;;;;;;36.80;13.50;;;;;;;;;;5012356;28;20026;-59
2024/02/29 07:24:05;;;;;;;43.53;14.40;;;;;;;;;;5020697;28;20032;-58
2024/02/29 07:26:30;;;;;;;40.35;13.82;;;;;;;;;;5020242;28;20024;-58
2024/02/29 07:28:57;;;;;;;37.67;13.32;;;;;;;;;;5020739;28;20117;-63
2024/02/29 07:31:22;;;;;;;41.30;14.25;;;;;;;;;;5021024;28;20033;-57
2024/02/29 07:33:47;;;;;;;31.85;12.38;;;;;;;;;;5026219;28;20038;-58
2024/02/29 07:36:12;;;;;;;38.63;13.73;;;;;;;;;;5024351;28;20089;-57
2024/02/29 07:38:38;;;;;;;41.80;14.17;;;;;;;;;;5020256;28;20025;-57
2024/02/29 07:41:03;;;;;;;35.63;13.47;;;;;;;;;;5012579;28;20014;-56
2024/02/29 07:43:28;;;;;;;39.57;14.90;;;;;;;;;;5012079;28;20076;-57
2024/02/29 07:45:53;;;;;;;35.83;14.50;;;;;;;;;;5016671;28;20456;-57
2024/02/29 07:48:18;;;;;;;36.03;13.90;;;;;;;;;;5011119;28;20036;-58
2024/02/29 07:50:43;;;;;;;35.83;12.90;;;;;;;;;;5006538;28;20119;-57
2024/02/29 07:53:09;;;;;;;36.40;13.55;;;;;;;;;;5009471;28;20367;-58
2024/02/29 07:55:34;;;;;;;36.47;12.52;;;;;;;;;;5010562;28;20026;-57
2024/02/29 07:58:00;;;;;;;34.95;13.18;;;;;;;;;;5011002;28;20057;-59
2024/02/29 08:00:26;;;;;;;35.97;13.95;;;;;;;;;;5010804;28;20129;-57
2024/02/29 08:02:51;;;;;;;33.67;12.95;;;;;;;;;;5008634;28;20113;-57
2024/02/29 08:05:17;;;;;;;32.08;12.15;;;;;;;;;;5015460;28;20453;-58
2024/02/29 08:07:46;;;;;;;30.60;12.18;;;;;;;;;;5011601;28;20076;-58
2024/02/29 08:10:15;;;;;;;27.15;11.55;;;;;;;;;;5011996;28;20381;-57
2024/02/29 08:12:40;;;;;;;34.90;13.13;;;;;;;;;;5011190;28;20021;-57
2024/02/29 08:15:05;;;;;;;30.45;12.13;;;;;;;;;;5010923;28;20014;-56
2024/02/29 08:17:30;;;;;;;27.08;11.68;;;;;;;;;;5010980;28;20034;-57
2024/02/29 08:19:56;;;;;;;28.33;11.93;;;;;;;;;;5013321;28;20033;-57
2024/02/29 08:22:21;;;;;;;32.22;11.63;;;;;;;;;;5017087;28;20032;-56
2024/02/29 08:24:46;;;;;;;32.13;12.68;;;;;;;;;;5015020;28;20049;-57
2024/02/29 08:27:12;;;;;;;29.70;12.45;;;;;;;;;;5012822;28;20037;-56
2024/02/29 08:29:37;;;;;;;27.20;11.23;;;;;;;;;;5008699;28;20468;-59
2024/02/29 08:32:02;;;;;;;29.20;11.63;;;;;;;;;;4995219;28;20033;-57
2024/02/29 08:34:27;;;;;;;27.83;11.85;;;;;;;;;;5016628;28;20052;-57
2024/02/29 08:36:52;;;;;;;25.57;11.10;;;;;;;;;;5024081;28;20026;-57
2024/02/29 08:39:17;;;;;;;26.60;11.20;;;;;;;;;;5022103;28;20061;-58
2024/02/29 08:41:44;;;;;;;24.80;11.10;;;;;;;;;;5015478;28;20014;-56
2024/02/29 08:44:09;;;;;;;27.75;11.40;;;;;;;;;;5015172;28;20018;-58
2024/02/29 08:46:35;;;;;;;26.92;11.35;;;;;;;;;;5015476;28;20068;-57
2024/02/29 08:49:00;;;;;;;23.48;9.77;;;;;;;;;;5018479;28;20030;-58
2024/02/29 08:51:25;;;;;;;26.02;10.57;;;;;;;;;;5022359;28;20037;-57
2024/02/29 08:53:50;;;;;;;29.35;11.48;;;;;;;;;;5023416;28;20073;-59
2024/02/29 08:56:15;;;;;;;25.25;10.90;;;;;;;;;;5029757;28;20022;-57
2024/02/29 08:58:41;;;;;;;27.67;11.60;;;;;;;;;;5020745;28;20065;-56
2024/02/29 09:01:07;;;;;;;25.85;11.05;;;;;;;;;;5022204;28;20026;-57
2024/02/29 09:03:33;;;;;;;25.08;10.80;;;;;;;;;;5018898;28;20021;-58
2024/02/29 09:05:58;;;;;;;26.63;10.10;;;;;;;;;;5017960;28;20017;-57
2024/02/29 09:08:23;;;;;;;26.30;11.53;;;;;;;;;;5030494;28;20025;-57
2024/02/29 09:10:48;;;;;;;24.23;10.97;;;;;;;;;;5039766;28;20050;-57
2024/02/29 09:13:14;;;;;;;25.63;10.60;;;;;;;;;;5027524;28;20386;-57
2024/02/29 09:15:41;;;;;;;32.50;11.10;;;;;;;;;;5027890;28;20022;-57
2024/02/29 09:18:08;;;;;;;25.67;10.38;;;;;;;;;;5028387;28;20029;-57
2024/02/29 09:20:33;;;;;;;;;;;;;;;;;;5025946;28;20089;-56
2024/02/29 09:22:58;;;;;;;25.63;11.15;;;;;;;;;;5025827;28;19906;-58
2024/02/29 09:25:23;;;;;;;26.17;11.05;;;;;;;;;;5020408;28;20168;-58
2024/02/29 09:27:49;;;;;;;29.77;11.70;;;;;;;;;;5018927;28;20017;-58
2024/02/29 09:30:15;;;;;;;24.65;10.75;;;;;;;;;;5016917;28;20072;-56
2024/02/29 09:32:43;;;;;;;25.33;11.07;;;;;;;;;;5013078;28;20080;-57
2024/02/29 09:35:09;;;;;;;27.35;10.93;;;;;;;;;;5014199;28;20084;-57
2024/02/29 09:37:34;;;;;;;24.30;10.97;;;;;;;;;;5013890;28;20482;-57
2024/02/29 09:39:59;;;;;;;22.33;10.30;;;;;;;;;;5008248;28;20022;-58
2024/02/29 09:42:26;;;;;;;28.77;12.25;;;;;;;;;;5024015;28;20022;-57
2024/02/29 09:44:51;;;;;;;26.60;11.40;;;;;;;;;;5023911;28;20041;-56
2024/02/29 09:47:19;;;;;;;24.58;11.65;;;;;;;;;;5016434;28;20030;-57
2024/02/29 09:49:44;;;;;;;24.63;10.65;;;;;;;;;;5014590;28;20055;-57
2024/02/29 09:52:09;;;;;;;25.20;11.65;;;;;;;;;;5013694;28;20021;-57
2024/02/29 09:54:36;;;;;;;26.40;12.27;;;;;;;;;;5016341;28;20025;-57
2024/02/29 09:57:01;;;;;;;;;;;;;;;;;;5017440;28;20010;-57
2024/02/29 09:59:27;;;;;;;25.98;11.13;;;;;;;;;;5013988;28;19964;-58
2024/02/29 10:01:52;;;;;;;26.30;11.48;;;;;;;;;;5013514;28;20064;-57
2024/02/29 10:04:17;;;;;;;29.23;13.00;;;;;;;;;;5013948;28;20030;-56
2024/02/29 10:06:43;;;;;;;25.02;12.27;;;;;;;;;;5015778;28;20026;-59
2024/02/29 10:09:08;;;;;;;27.02;11.68;;;;;;;;;;5014474;28;20019;-57
2024/02/29 10:11:38;;;;;;;29.13;13.88;;;;;;;;;;5015573;28;20057;-57
2024/02/29 10:14:03;;;;;;;26.45;12.40;;;;;;;;;;5003409;28;20019;-57
2024/02/29 10:16:30;;;;;;;27.40;13.17;;;;;;;;;;4993950;28;20030;-58
2024/02/29 10:18:55;;;;;;;28.63;13.48;;;;;;;;;;4993508;28;20549;-58
2024/02/29 10:21:20;;;;;;;25.40;11.63;;;;;;;;;;4993253;28;20097;-58
2024/02/29 10:23:45;;;;;;;29.50;12.70;;;;;;;;;;5013572;28;20025;-58
2024/02/29 10:26:11;;;;;;;27.08;12.30;;;;;;;;;;5011718;28;20064;-57
2024/02/29 10:28:36;;;;;;;29.50;13.53;;;;;;;;;;5013120;28;20478;-58
2024/02/29 10:31:01;;;;;;;33.85;13.40;;;;;;;;;;5012567;28;20486;-59
2024/02/29 10:33:27;;;;;;;29.03;12.90;;;;;;;;;;5012798;28;20021;-57
2024/02/29 10:35:52;;;;;;;29.05;12.35;;;;;;;;;;5018860;28;20029;-57
2024/02/29 10:38:18;;;;;;;29.15;13.25;;;;;;;;;;5017140;28;20030;-57
2024/02/29 10:40:46;;;;;;;27.63;12.18;;;;;;;;;;5008893;28;20017;-58
2024/02/29 10:43:11;;;;;;;25.65;12.32;;;;;;;;;;5014139;28;20420;-58
2024/02/29 10:45:45;;;;;;;23.73;11.25;;;;;;;;;;5012492;28;20053;-58
2024/02/29 10:48:30;;;;;;;23.67;11.25;;;;;;;;;;5012746;28;20026;-57
2024/02/29 10:50:59;;;;;;;24.25;12.38;;;;;;;;;;5012660;28;20385;-58
2024/02/29 10:53:27;;;;;;;24.20;11.70;;;;;;;;;;5008665;28;20482;-58
2024/02/29 10:55:57;;;;;;;24.02;12.32;;;;;;;;;;5011938;28;20017;-57
2024/02/29 10:58:26;;;;;;;23.92;11.73;;;;;;;;;;5012532;28;20096;-57
2024/02/29 11:00:52;;;;;;;23.00;12.02;;;;;;;;;;5012225;28;20014;-58
2024/02/29 11:03:17;;;;;;;21.83;11.45;;;;;;;;;;5012453;28;20022;-58
2024/02/29 11:05:44;;;;;;;23.92;10.95;;;;;;;;;;5011013;28;20022;-57
2024/02/29 11:08:09;;;;;;;22.17;11.32;;;;;;;;;;5013988;28;20080;-57
2024/02/29 11:10:34;;;;;;;24.23;12.37;;;;;;;;;;5008346;28;20394;-57
2024/02/29 11:13:03;;;;;;;25.10;12.77;;;;;;;;;;5004145;28;20026;-57
2024/02/29 11:15:29;;;;;;;26.27;12.52;;;;;;;;;;5012095;28;20101;-57
2024/02/29 11:17:54;;;;;;;33.60;14.13;;;;;;;;;;5015470;28;20136;-58
2024/02/29 11:20:20;;;;;;;23.07;12.03;;;;;;;;;;5018232;28;20022;-58
2024/02/29 11:22:45;;;;;;;25.58;12.38;;;;;;;;;;5016688;28;20029;-58
2024/02/29 11:25:18;;;;;;;24.42;12.18;;;;;;;;;;5002163;28;20478;-58
2024/02/29 11:27:47;;;;;;;22.77;12.23;;;;;;;;;;5015623;28;20075;-59
2024/02/29 11:30:13;;;;;;;22.77;11.10;;;;;;;;;;5004252;28;20335;-57
2024/02/29 11:32:38;;;;;;;22.83;11.02;;;;;;;;;;5011547;28;20022;-57
2024/02/29 11:35:04;;;;;;;22.97;11.13;;;;;;;;;;5014807;28;20033;-57
2024/02/29 11:37:29;;;;;;;24.05;12.30;;;;;;;;;;5013309;28;20439;-57
2024/02/29 11:40:04;;;;;;;25.58;11.82;;;;;;;;;;5013074;28;20021;-58
2024/02/29 11:42:29;;;;;;;23.25;11.90;;;;;;;;;;4995047;28;20062;-58
2024/02/29 11:44:54;;;;;;;21.85;11.40;;;;;;;;;;4995975;28;20014;-57
2024/02/29 11:47:19;;;;;;;23.08;11.80;;;;;;;;;;5010022;28;20107;-59
2024/02/29 11:49:45;;;;;;;22.97;11.13;;;;;;;;;;5030113;28;20025;-57
2024/02/29 11:52:11;;;;;;;22.65;11.38;;;;;;;;;;5031291;28;20046;-58
2024/02/29 11:54:36;;;;;;;22.73;11.65;;;;;;;;;;5019941;28;20033;-57
2024/02/29 11:57:01;;;;;;;21.50;11.27;;;;;;;;;;5012867;28;20029;-58
2024/02/29 11:59:26;;;;;;;19.67;10.77;;;;;;;;;;5012097;28;20030;-57
2024/02/29 12:01:52;;;;;;;21.10;11.00;;;;;;;;;;5010349;28;20582;-57
2024/02/29 12:04:17;;;;;;;19.70;10.32;;;;;;;;;;5015491;28;20438;-58
2024/02/29 12:06:46;;;;;;;22.02;11.18;;;;;;;;;;5011634;28;20014;-57
2024/02/29 12:09:12;;;;;;;22.90;10.98;;;;;;;;;;5012451;28;20601;-57
2024/02/29 12:11:38;;;;;;;21.90;10.02;;;;;;;;;;5011906;28;20065;-57
2024/02/29 12:14:03;;;;;;;20.63;10.95;;;;;;;;;;5011032;28;20006;-59
2024/02/29 12:16:29;;;;;;;21.08;10.27;;;;;;;;;;5006546;28;20048;-58
2024/02/29 12:18:54;;;;;;;19.48;9.85;;;;;;;;;;5011505;28;20504;-58
2024/02/29 12:21:19;;;;;;;20.02;10.35;;;;;;;;;;5010124;28;20105;-56
2024/02/29 12:23:46;;;;;;;21.20;10.88;;;;;;;;;;5011056;28;20056;-58
2024/02/29 12:26:16;;;;;;;19.35;10.15;;;;;;;;;;5011608;28;20021;-58
2024/02/29 12:28:41;;;;;;;20.20;11.10;;;;;;;;;;5013639;28;20026;-57
2024/02/29 12:31:07;;;;;;;18.13;9.63;;;;;;;;;;5010987;28;20559;-57
2024/02/29 12:33:39;;;;;;;18.80;9.77;;;;;;;;;;5010991;28;20029;-57
2024/02/29 12:36:05;;;;;;;19.20;9.50;;;;;;;;;;5011053;28;20061;-58
2024/02/29 12:38:30;;;;;;;22.05;10.70;;;;;;;;;;5011510;28;20072;-58
2024/02/29 12:40:56;;;;;;;19.93;9.87;;;;;;;;;;5011069;28;20030;-57
2024/02/29 12:43:21;;;;;;;21.33;10.43;;;;;;;;;;5007230;28;20790;-58
2024/02/29 12:45:46;;;;;;;21.70;10.27;;;;;;;;;;5011343;28;20037;-58
2024/02/29 12:48:11;;;;;;;20.10;10.30;;;;;;;;;;5011386;28;20018;-58
2024/02/29 12:50:37;;;;;;;21.90;10.00;;;;;;;;;;5011066;28;20088;-58
2024/02/29 12:53:02;;;;;;;20.83;10.65;;;;;;;;;;5011251;28;20026;-58
2024/02/29 12:55:27;;;;;;;20.00;10.02;;;;;;;;;;5010628;28;20026;-57
2024/02/29 12:57:53;;;;;;;20.63;10.35;;;;;;;;;;5011453;28;20041;-58
2024/02/29 13:00:23;;;;;;;20.50;10.55;;;;;;;;;;5011506;28;20486;-58
2024/02/29 13:02:50;;;;;;;21.30;10.80;;;;;;;;;;5011346;28;20033;-58
2024/02/29 13:05:16;;;;;;;24.38;12.20;;;;;;;;;;5011333;28;20030;-58
2024/02/29 13:07:41;;;;;;;22.88;11.25;;;;;;;;;;5014358;28;20534;-58
2024/02/29 13:10:07;;;;;;;24.48;12.15;;;;;;;;;;5021359;28;20029;-57
2024/02/29 13:12:32;;;;;;;24.10;11.95;;;;;;;;;;5015650;28;20232;-57
2024/02/29 13:14:57;;;;;;;25.73;11.93;;;;;;;;;;5014255;28;20053;-57
2024/02/29 13:17:22;;;;;;;24.55;12.15;;;;;;;;;;5019676;28;20080;-57
2024/02/29 13:19:47;;;;;;;24.20;12.50;;;;;;;;;;5022600;28;20113;-60
2024/02/29 13:22:13;;;;;;;26.23;13.25;;;;;;;;;;5035964;28;20029;-58
2024/02/29 13:24:38;;;;;;;25.48;12.48;;;;;;;;;;5028051;28;20052;-57
2024/02/29 13:27:04;;;;;;;24.25;13.00;;;;;;;;;;5028245;28;20478;-58
2024/02/29 13:29:29;;;;;;;24.38;11.68;;;;;;;;;;5014596;28;20038;-57
2024/02/29 13:31:55;;;;;;;24.83;12.65;;;;;;;;;;5011466;28;20099;-57
2024/02/29 13:34:20;;;;;;;23.53;12.17;;;;;;;;;;5012785;28;20034;-58
2024/02/29 13:36:45;;;;;;;25.52;12.77;;;;;;;;;;5013329;28;20482;-72
2024/02/29 13:39:12;;;;;;;28.97;12.30;;;;;;;;;;5013449;28;20018;-58
2024/02/29 13:41:37;;;;;;;24.30;12.05;;;;;;;;;;5011219;28;20046;-58
2024/02/29 13:44:02;;;;;;;23.30;12.07;;;;;;;;;;5015542;28;20065;-58
2024/02/29 13:46:28;;;;;;;24.17;11.57;;;;;;;;;;5011774;28;20034;-57
2024/02/29 13:48:53;;;;;;;20.85;10.85;;;;;;;;;;5013328;28;20109;-58
2024/02/29 13:51:18;;;;;;;23.77;12.65;;;;;;;;;;5010453;28;20022;-57
2024/02/29 13:53:44;;;;;;;24.40;12.07;;;;;;;;;;5022790;28;20454;-58
2024/02/29 13:56:09;;;;;;;24.80;11.73;;;;;;;;;;5026125;28;20036;-57
2024/02/29 13:58:34;;;;;;;23.30;12.07;;;;;;;;;;5024498;28;20037;-57
2024/02/29 14:00:59;;;;;;;21.37;10.63;;;;;;;;;;5015091;28;20396;-57
2024/02/29 14:03:24;;;;;;;23.87;11.07;;;;;;;;;;5020496;28;20084;-57
2024/02/29 14:05:52;;;;;;;21.48;10.73;;;;;;;;;;5015352;28;20026;-57
2024/02/29 14:08:17;;;;;;;24.55;11.95;;;;;;;;;;5014898;28;20029;-57